sensor_id;sensor_type;location;lat;lon;timestamp;P1;durP1;ratioP1;P2;durP2;ratioP2
78131;SDS011;67381;47.672;9.380;2023-04-16T00:01:35;4.93;;;2.72;;
78131;SDS011;67381;47.672;9.380;2023-04-16T00:04:02;5.85;;;3.35;;
78131;SDS011;67381;47.672;9.380;2023-04-16T00:06:30;3.50;;;2.50;;
78131;SDS011;67381;47.672;9.380;2023-04-16T00:08:57;4.47;;;2.70;;
78131;SDS011;67381;47.672;9.380;2023-04-16T00:11:25;5.65;;;2.80;;
78131;SDS011;67381;47.672;9.380;2023-04-16T00:13:52;6.28;;;3.30;;
78131;SDS011;67381;47.672;9.380;2023-04-16T00:16:19;5.70;;;2.70;;
78131;SDS011;67381;47.672;9.380;2023-04-16T00:18:46;6.32;;;3.05;;
78131;SDS011;67381;47.672;9.380;2023-04-16T00:21:14;5.93;;;2.75;;
78131;SDS011;67381;47.672;9.380;2023-04-16T00:23:41;4.80;;;3.33;;
78131;SDS011;67381;47.672;9.380;2023-04-16T00:26:08;4.75;;;3.03;;
78131;SDS011;67381;47.672;9.380;2023-04-16T00:28:35;4.97;;;3.00;;
78131;SDS011;67381;47.672;9.380;2023-04-16T00:31:03;5.18;;;3.35;;
78131;SDS011;67381;47.672;9.380;2023-04-16T00:33:30;5.22;;;2.80;;
78131;SDS011;67381;47.672;9.380;2023-04-16T00:35:57;3.88;;;3.17;;
78131;SDS011;67381;47.672;9.380;2023-04-16T00:38:25;4.25;;;2.60;;
78131;SDS011;67381;47.672;9.380;2023-04-16T00:40:56;3.85;;;2.70;;
78131;SDS011;67381;47.672;9.380;2023-04-16T00:43:26;4.70;;;2.80;;
78131;SDS011;67381;47.672;9.380;2023-04-16T00:45:54;4.28;;;3.03;;
78131;SDS011;67381;47.672;9.380;2023-04-16T00:48:22;4.95;;;3.15;;
78131;SDS011;67381;47.672;9.380;2023-04-16T00:50:50;5.07;;;3.13;;
78131;SDS011;67381;47.672;9.380;2023-04-16T00:53:17;4.68;;;2.63;;
78131;SDS011;67381;47.672;9.380;2023-04-16T00:55:44;4.47;;;2.95;;
78131;SDS011;67381;47.672;9.380;2023-04-16T00:58:11;4.03;;;3.05;;
78131;SDS011;67381;47.672;9.380;2023-04-16T01:00:39;4.60;;;3.15;;
78131;SDS011;67381;47.672;9.380;2023-04-16T01:03:07;6.30;;;3.28;;
78131;SDS011;67381;47.672;9.380;2023-04-16T01:05:35;5.03;;;3.10;;
78131;SDS011;67381;47.672;9.380;2023-04-16T01:08:03;5.38;;;3.10;;
78131;SDS011;67381;47.672;9.380;2023-04-16T01:10:30;6.50;;;4.40;;
78131;SDS011;67381;47.672;9.380;2023-04-16T01:12:57;6.45;;;4.35;;
78131;SDS011;67381;47.672;9.380;2023-04-16T01:15:24;7.65;;;4.93;;
78131;SDS011;67381;47.672;9.380;2023-04-16T01:17:51;6.63;;;5.30;;
78131;SDS011;67381;47.672;9.380;2023-04-16T01:20:19;7.00;;;5.70;;
78131;SDS011;67381;47.672;9.380;2023-04-16T01:22:46;8.82;;;4.75;;
78131;SDS011;67381;47.672;9.380;2023-04-16T01:25:13;7.35;;;5.28;;
78131;SDS011;67381;47.672;9.380;2023-04-16T01:27:42;8.52;;;5.53;;
78131;SDS011;67381;47.672;9.380;2023-04-16T01:30:09;8.93;;;6.10;;
78131;SDS011;67381;47.672;9.380;2023-04-16T01:32:36;10.05;;;5.35;;
78131;SDS011;67381;47.672;9.380;2023-04-16T01:35:04;8.18;;;5.75;;
78131;SDS011;67381;47.672;9.380;2023-04-16T01:37:32;8.52;;;4.90;;
78131;SDS011;67381;47.672;9.380;2023-04-16T01:39:59;7.03;;;4.25;;
78131;SDS011;67381;47.672;9.380;2023-04-16T01:42:26;8.63;;;4.68;;
78131;SDS011;67381;47.672;9.380;2023-04-16T01:44:54;7.40;;;3.85;;
78131;SDS011;67381;47.672;9.380;2023-04-16T01:47:21;5.03;;;3.58;;
78131;SDS011;67381;47.672;9.380;2023-04-16T01:49:48;5.07;;;3.78;;
78131;SDS011;67381;47.672;9.380;2023-04-16T01:52:15;5.68;;;3.05;;
78131;SDS011;67381;47.672;9.380;2023-04-16T01:54:42;5.00;;;3.67;;
78131;SDS011;67381;47.672;9.380;2023-04-16T01:57:10;4.88;;;3.10;;
78131;SDS011;67381;47.672;9.380;2023-04-16T01:59:37;6.82;;;2.78;;
78131;SDS011;67381;47.672;9.380;2023-04-16T02:02:14;3.97;;;2.45;;
78131;SDS011;67381;47.672;9.380;2023-04-16T02:04:43;4.75;;;2.80;;
78131;SDS011;67381;47.672;9.380;2023-04-16T02:07:11;3.65;;;2.20;;
78131;SDS011;67381;47.672;9.380;2023-04-16T02:09:39;3.50;;;2.13;;
78131;SDS011;67381;47.672;9.380;2023-04-16T02:12:06;3.15;;;2.10;;
78131;SDS011;67381;47.672;9.380;2023-04-16T02:14:35;3.95;;;2.17;;
78131;SDS011;67381;47.672;9.380;2023-04-16T02:17:02;3.20;;;2.15;;
78131;SDS011;67381;47.672;9.380;2023-04-16T02:19:30;3.33;;;2.03;;
78131;SDS011;67381;47.672;9.380;2023-04-16T02:21:57;3.55;;;2.60;;
78131;SDS011;67381;47.672;9.380;2023-04-16T02:24:27;3.45;;;2.55;;
78131;SDS011;67381;47.672;9.380;2023-04-16T02:26:54;4.03;;;2.88;;
78131;SDS011;67381;47.672;9.380;2023-04-16T02:29:22;4.68;;;3.25;;
78131;SDS011;67381;47.672;9.380;2023-04-16T02:31:50;5.03;;;3.30;;
78131;SDS011;67381;47.672;9.380;2023-04-16T02:34:17;4.95;;;2.90;;
78131;SDS011;67381;47.672;9.380;2023-04-16T02:36:44;4.60;;;3.15;;
78131;SDS011;67381;47.672;9.380;2023-04-16T02:39:11;5.47;;;3.00;;
78131;SDS011;67381;47.672;9.380;2023-04-16T02:41:38;5.55;;;3.25;;
78131;SDS011;67381;47.672;9.380;2023-04-16T02:44:06;3.67;;;2.58;;
78131;SDS011;67381;47.672;9.380;2023-04-16T02:46:33;3.97;;;2.42;;
78131;SDS011;67381;47.672;9.380;2023-04-16T02:49:00;5.28;;;2.85;;
78131;SDS011;67381;47.672;9.380;2023-04-16T02:51:27;4.13;;;2.53;;
78131;SDS011;67381;47.672;9.380;2023-04-16T02:53:54;4.03;;;2.47;;
78131;SDS011;67381;47.672;9.380;2023-04-16T02:56:22;3.53;;;2.40;;
78131;SDS011;67381;47.672;9.380;2023-04-16T02:58:49;3.97;;;2.70;;
78131;SDS011;67381;47.672;9.380;2023-04-16T03:01:16;3.42;;;1.63;;
78131;SDS011;67381;47.672;9.380;2023-04-16T03:03:43;4.82;;;3.05;;
78131;SDS011;67381;47.672;9.380;2023-04-16T03:06:11;4.63;;;3.17;;
78131;SDS011;67381;47.672;9.380;2023-04-16T03:08:38;6.32;;;3.97;;
78131;SDS011;67381;47.672;9.380;2023-04-16T03:11:05;6.63;;;4.72;;
78131;SDS011;67381;47.672;9.380;2023-04-16T03:13:33;6.32;;;4.75;;
78131;SDS011;67381;47.672;9.380;2023-04-16T03:16:00;7.78;;;5.30;;
78131;SDS011;67381;47.672;9.380;2023-04-16T03:18:27;8.20;;;5.18;;
78131;SDS011;67381;47.672;9.380;2023-04-16T03:20:55;7.88;;;5.35;;
78131;SDS011;67381;47.672;9.380;2023-04-16T03:23:22;7.47;;;5.43;;
78131;SDS011;67381;47.672;9.380;2023-04-16T03:25:49;6.82;;;5.20;;
78131;SDS011;67381;47.672;9.380;2023-04-16T03:28:16;8.15;;;5.38;;
78131;SDS011;67381;47.672;9.380;2023-04-16T03:30:50;7.55;;;4.72;;
78131;SDS011;67381;47.672;9.380;2023-04-16T03:33:19;8.57;;;5.75;;
78131;SDS011;67381;47.672;9.380;2023-04-16T03:35:46;9.43;;;5.63;;
78131;SDS011;67381;47.672;9.380;2023-04-16T03:38:21;8.18;;;5.03;;
78131;SDS011;67381;47.672;9.380;2023-04-16T03:40:49;8.25;;;5.13;;
78131;SDS011;67381;47.672;9.380;2023-04-16T03:43:16;7.00;;;4.90;;
78131;SDS011;67381;47.672;9.380;2023-04-16T03:45:44;8.75;;;5.85;;
78131;SDS011;67381;47.672;9.380;2023-04-16T03:48:12;9.23;;;5.22;;
78131;SDS011;67381;47.672;9.380;2023-04-16T03:50:39;7.75;;;5.50;;
78131;SDS011;67381;47.672;9.380;2023-04-16T03:53:06;9.07;;;5.93;;
78131;SDS011;67381;47.672;9.380;2023-04-16T03:55:34;8.55;;;5.68;;
78131;SDS011;67381;47.672;9.380;2023-04-16T03:58:01;9.40;;;5.55;;
78131;SDS011;67381;47.672;9.380;2023-04-16T04:00:30;10.88;;;5.90;;
78131;SDS011;67381;47.672;9.380;2023-04-16T04:02:57;9.50;;;6.20;;
78131;SDS011;67381;47.672;9.380;2023-04-16T04:05:25;9.63;;;5.05;;
78131;SDS011;67381;47.672;9.380;2023-04-16T04:07:52;9.57;;;5.35;;
78131;SDS011;67381;47.672;9.380;2023-04-16T04:10:19;8.18;;;5.97;;
78131;SDS011;67381;47.672;9.380;2023-04-16T04:12:47;8.68;;;5.80;;
78131;SDS011;67381;47.672;9.380;2023-04-16T04:15:14;9.00;;;6.05;;
78131;SDS011;67381;47.672;9.380;2023-04-16T04:17:41;10.80;;;6.13;;
78131;SDS011;67381;47.672;9.380;2023-04-16T04:20:09;9.32;;;6.35;;
78131;SDS011;67381;47.672;9.380;2023-04-16T04:22:37;9.75;;;6.50;;
78131;SDS011;67381;47.672;9.380;2023-04-16T04:25:04;9.52;;;5.65;;
78131;SDS011;67381;47.672;9.380;2023-04-16T04:27:32;7.57;;;5.00;;
78131;SDS011;67381;47.672;9.380;2023-04-16T04:29:59;9.43;;;5.82;;
78131;SDS011;67381;47.672;9.380;2023-04-16T04:32:26;7.80;;;5.68;;
78131;SDS011;67381;47.672;9.380;2023-04-16T04:34:53;9.75;;;4.93;;
78131;SDS011;67381;47.672;9.380;2023-04-16T04:37:21;8.80;;;6.47;;
78131;SDS011;67381;47.672;9.380;2023-04-16T04:39:48;9.45;;;5.43;;
78131;SDS011;67381;47.672;9.380;2023-04-16T04:42:15;8.40;;;5.53;;
78131;SDS011;67381;47.672;9.380;2023-04-16T04:44:44;8.40;;;5.97;;
78131;SDS011;67381;47.672;9.380;2023-04-16T04:47:12;7.22;;;4.93;;
78131;SDS011;67381;47.672;9.380;2023-04-16T04:49:39;10.98;;;4.50;;
78131;SDS011;67381;47.672;9.380;2023-04-16T04:52:07;6.70;;;4.20;;
78131;SDS011;67381;47.672;9.380;2023-04-16T04:54:34;7.43;;;4.57;;
78131;SDS011;67381;47.672;9.380;2023-04-16T04:57:01;7.55;;;4.78;;
78131;SDS011;67381;47.672;9.380;2023-04-16T04:59:29;6.88;;;4.50;;
78131;SDS011;67381;47.672;9.380;2023-04-16T05:01:56;7.13;;;4.20;;
78131;SDS011;67381;47.672;9.380;2023-04-16T05:04:23;6.82;;;4.72;;
78131;SDS011;67381;47.672;9.380;2023-04-16T05:06:50;6.57;;;4.53;;
78131;SDS011;67381;47.672;9.380;2023-04-16T05:09:17;6.95;;;4.68;;
78131;SDS011;67381;47.672;9.380;2023-04-16T05:11:45;6.75;;;4.10;;
78131;SDS011;67381;47.672;9.380;2023-04-16T05:14:12;6.82;;;4.28;;
78131;SDS011;67381;47.672;9.380;2023-04-16T05:16:39;7.30;;;4.72;;
78131;SDS011;67381;47.672;9.380;2023-04-16T05:19:06;6.93;;;3.85;;
78131;SDS011;67381;47.672;9.380;2023-04-16T05:21:33;5.78;;;4.38;;
78131;SDS011;67381;47.672;9.380;2023-04-16T05:24:01;6.05;;;3.67;;
78131;SDS011;67381;47.672;9.380;2023-04-16T05:26:28;5.85;;;3.85;;
78131;SDS011;67381;47.672;9.380;2023-04-16T05:28:55;4.45;;;3.05;;
78131;SDS011;67381;47.672;9.380;2023-04-16T05:31:22;5.40;;;4.05;;
78131;SDS011;67381;47.672;9.380;2023-04-16T05:33:50;5.22;;;3.08;;
78131;SDS011;67381;47.672;9.380;2023-04-16T05:36:17;5.20;;;3.33;;
78131;SDS011;67381;47.672;9.380;2023-04-16T05:38:44;6.13;;;4.03;;
78131;SDS011;67381;47.672;9.380;2023-04-16T05:41:11;7.60;;;4.63;;
78131;SDS011;67381;47.672;9.380;2023-04-16T05:43:38;6.00;;;4.18;;
78131;SDS011;67381;47.672;9.380;2023-04-16T05:46:06;6.18;;;4.13;;
78131;SDS011;67381;47.672;9.380;2023-04-16T05:48:33;5.93;;;4.07;;
78131;SDS011;67381;47.672;9.380;2023-04-16T05:51:00;6.85;;;4.68;;
78131;SDS011;67381;47.672;9.380;2023-04-16T05:53:28;5.82;;;4.00;;
78131;SDS011;67381;47.672;9.380;2023-04-16T05:55:55;5.47;;;3.55;;
78131;SDS011;67381;47.672;9.380;2023-04-16T05:58:22;5.35;;;3.63;;
78131;SDS011;67381;47.672;9.380;2023-04-16T06:00:50;4.78;;;3.58;;
78131;SDS011;67381;47.672;9.380;2023-04-16T06:03:17;6.25;;;3.33;;
78131;SDS011;67381;47.672;9.380;2023-04-16T06:05:44;6.25;;;3.30;;
78131;SDS011;67381;47.672;9.380;2023-04-16T06:08:12;4.55;;;2.72;;
78131;SDS011;67381;47.672;9.380;2023-04-16T06:10:39;5.00;;;3.42;;
78131;SDS011;67381;47.672;9.380;2023-04-16T06:13:06;4.45;;;2.90;;
78131;SDS011;67381;47.672;9.380;2023-04-16T06:15:33;4.85;;;3.17;;
78131;SDS011;67381;47.672;9.380;2023-04-16T06:18:01;4.75;;;2.35;;
78131;SDS011;67381;47.672;9.380;2023-04-16T06:20:28;5.20;;;3.38;;
78131;SDS011;67381;47.672;9.380;2023-04-16T06:22:55;4.32;;;2.35;;
78131;SDS011;67381;47.672;9.380;2023-04-16T06:25:22;6.18;;;3.05;;
78131;SDS011;67381;47.672;9.380;2023-04-16T06:27:49;4.88;;;2.67;;
78131;SDS011;67381;47.672;9.380;2023-04-16T06:30:17;5.05;;;2.35;;
78131;SDS011;67381;47.672;9.380;2023-04-16T06:32:45;5.03;;;2.95;;
78131;SDS011;67381;47.672;9.380;2023-04-16T06:35:13;4.05;;;2.80;;
78131;SDS011;67381;47.672;9.380;2023-04-16T06:37:41;6.70;;;2.60;;
78131;SDS011;67381;47.672;9.380;2023-04-16T06:40:08;5.28;;;3.40;;
78131;SDS011;67381;47.672;9.380;2023-04-16T06:42:36;5.05;;;3.35;;
78131;SDS011;67381;47.672;9.380;2023-04-16T06:45:03;5.88;;;3.83;;
78131;SDS011;67381;47.672;9.380;2023-04-16T06:47:30;5.30;;;3.28;;
78131;SDS011;67381;47.672;9.380;2023-04-16T06:49:58;4.82;;;4.10;;
78131;SDS011;67381;47.672;9.380;2023-04-16T06:52:25;5.20;;;3.83;;
78131;SDS011;67381;47.672;9.380;2023-04-16T06:54:52;4.95;;;3.78;;
78131;SDS011;67381;47.672;9.380;2023-04-16T06:57:20;6.00;;;3.67;;
78131;SDS011;67381;47.672;9.380;2023-04-16T06:59:47;5.30;;;3.70;;
78131;SDS011;67381;47.672;9.380;2023-04-16T07:02:14;8.00;;;4.47;;
78131;SDS011;67381;47.672;9.380;2023-04-16T07:04:41;7.10;;;4.07;;
78131;SDS011;67381;47.672;9.380;2023-04-16T07:07:09;7.22;;;4.75;;
78131;SDS011;67381;47.672;9.380;2023-04-16T07:09:36;5.97;;;4.75;;
78131;SDS011;67381;47.672;9.380;2023-04-16T07:12:04;7.07;;;4.38;;
78131;SDS011;67381;47.672;9.380;2023-04-16T07:14:32;6.90;;;4.18;;
78131;SDS011;67381;47.672;9.380;2023-04-16T07:17:00;6.30;;;3.97;;
78131;SDS011;67381;47.672;9.380;2023-04-16T07:19:27;6.07;;;4.07;;
78131;SDS011;67381;47.672;9.380;2023-04-16T07:21:58;5.90;;;4.05;;
78131;SDS011;67381;47.672;9.380;2023-04-16T07:24:26;6.10;;;3.70;;
78131;SDS011;67381;47.672;9.380;2023-04-16T07:26:53;5.50;;;2.67;;
78131;SDS011;67381;47.672;9.380;2023-04-16T07:29:20;5.38;;;4.07;;
78131;SDS011;67381;47.672;9.380;2023-04-16T07:31:47;9.85;;;4.65;;
78131;SDS011;67381;47.672;9.380;2023-04-16T07:34:15;7.22;;;4.72;;
78131;SDS011;67381;47.672;9.380;2023-04-16T07:36:42;7.20;;;4.88;;
78131;SDS011;67381;47.672;9.380;2023-04-16T07:39:09;5.80;;;3.90;;
78131;SDS011;67381;47.672;9.380;2023-04-16T07:41:37;5.82;;;4.00;;
78131;SDS011;67381;47.672;9.380;2023-04-16T07:44:06;6.43;;;4.10;;
78131;SDS011;67381;47.672;9.380;2023-04-16T07:46:34;5.53;;;4.00;;
78131;SDS011;67381;47.672;9.380;2023-04-16T07:49:05;7.28;;;4.60;;
78131;SDS011;67381;47.672;9.380;2023-04-16T07:51:32;6.28;;;3.97;;
78131;SDS011;67381;47.672;9.380;2023-04-16T07:54:00;5.93;;;4.18;;
78131;SDS011;67381;47.672;9.380;2023-04-16T07:56:27;5.22;;;3.03;;
78131;SDS011;67381;47.672;9.380;2023-04-16T07:58:54;4.80;;;2.53;;
78131;SDS011;67381;47.672;9.380;2023-04-16T08:01:21;4.63;;;2.65;;
78131;SDS011;67381;47.672;9.380;2023-04-16T08:03:49;4.18;;;2.40;;
78131;SDS011;67381;47.672;9.380;2023-04-16T08:06:16;3.80;;;2.65;;
78131;SDS011;67381;47.672;9.380;2023-04-16T08:08:44;4.13;;;2.88;;
78131;SDS011;67381;47.672;9.380;2023-04-16T08:11:11;5.25;;;3.03;;
78131;SDS011;67381;47.672;9.380;2023-04-16T08:13:38;3.47;;;2.22;;
78131;SDS011;67381;47.672;9.380;2023-04-16T08:16:05;7.63;;;2.85;;
78131;SDS011;67381;47.672;9.380;2023-04-16T08:18:33;4.72;;;2.83;;
78131;SDS011;67381;47.672;9.380;2023-04-16T08:21:00;4.47;;;3.00;;
78131;SDS011;67381;47.672;9.380;2023-04-16T08:23:27;4.88;;;3.45;;
78131;SDS011;67381;47.672;9.380;2023-04-16T08:25:55;5.05;;;3.33;;
78131;SDS011;67381;47.672;9.380;2023-04-16T08:28:22;9.55;;;5.18;;
78131;SDS011;67381;47.672;9.380;2023-04-16T08:30:50;7.80;;;4.78;;
78131;SDS011;67381;47.672;9.380;2023-04-16T08:33:17;6.95;;;3.83;;
78131;SDS011;67381;47.672;9.380;2023-04-16T08:35:44;5.60;;;4.53;;
78131;SDS011;67381;47.672;9.380;2023-04-16T08:38:12;6.50;;;3.08;;
78131;SDS011;67381;47.672;9.380;2023-04-16T08:40:39;6.30;;;3.72;;
78131;SDS011;67381;47.672;9.380;2023-04-16T08:43:10;4.47;;;2.38;;
78131;SDS011;67381;47.672;9.380;2023-04-16T08:45:39;7.10;;;5.82;;
78131;SDS011;67381;47.672;9.380;2023-04-16T08:48:08;5.35;;;3.40;;
78131;SDS011;67381;47.672;9.380;2023-04-16T08:50:37;4.13;;;2.88;;
78131;SDS011;67381;47.672;9.380;2023-04-16T08:53:05;5.53;;;3.40;;
78131;SDS011;67381;47.672;9.380;2023-04-16T08:55:36;5.53;;;3.78;;
78131;SDS011;67381;47.672;9.380;2023-04-16T08:58:10;5.63;;;3.55;;
78131;SDS011;67381;47.672;9.380;2023-04-16T09:00:47;5.00;;;3.45;;
78131;SDS011;67381;47.672;9.380;2023-04-16T09:03:14;4.40;;;3.00;;
78131;SDS011;67381;47.672;9.380;2023-04-16T09:05:42;5.70;;;3.13;;
78131;SDS011;67381;47.672;9.380;2023-04-16T09:08:09;5.90;;;4.03;;
78131;SDS011;67381;47.672;9.380;2023-04-16T09:10:37;5.95;;;3.40;;
78131;SDS011;67381;47.672;9.380;2023-04-16T09:13:04;5.15;;;3.15;;
78131;SDS011;67381;47.672;9.380;2023-04-16T09:15:31;4.18;;;2.83;;
78131;SDS011;67381;47.672;9.380;2023-04-16T09:18:00;4.38;;;2.95;;
78131;SDS011;67381;47.672;9.380;2023-04-16T09:20:28;5.53;;;3.75;;
78131;SDS011;67381;47.672;9.380;2023-04-16T09:22:55;5.50;;;3.65;;
78131;SDS011;67381;47.672;9.380;2023-04-16T09:25:23;5.40;;;3.42;;
78131;SDS011;67381;47.672;9.380;2023-04-16T09:27:50;5.95;;;3.13;;
78131;SDS011;67381;47.672;9.380;2023-04-16T09:30:18;6.90;;;4.55;;
78131;SDS011;67381;47.672;9.380;2023-04-16T09:32:50;6.43;;;3.80;;
78131;SDS011;67381;47.672;9.380;2023-04-16T09:35:18;7.13;;;4.57;;
78131;SDS011;67381;47.672;9.380;2023-04-16T09:37:55;4.80;;;3.30;;
78131;SDS011;67381;47.672;9.380;2023-04-16T09:40:24;7.68;;;3.67;;
78131;SDS011;67381;47.672;9.380;2023-04-16T09:42:55;6.13;;;3.95;;
78131;SDS011;67381;47.672;9.380;2023-04-16T09:45:23;9.02;;;4.97;;
78131;SDS011;67381;47.672;9.380;2023-04-16T09:47:50;4.32;;;3.05;;
78131;SDS011;67381;47.672;9.380;2023-04-16T09:50:18;7.18;;;4.05;;
78131;SDS011;67381;47.672;9.380;2023-04-16T09:52:48;6.00;;;3.83;;
78131;SDS011;67381;47.672;9.380;2023-04-16T09:55:21;5.43;;;3.70;;
78131;SDS011;67381;47.672;9.380;2023-04-16T09:57:52;4.93;;;3.60;;
78131;SDS011;67381;47.672;9.380;2023-04-16T10:00:24;4.50;;;3.20;;
78131;SDS011;67381;47.672;9.380;2023-04-16T10:03:02;4.38;;;3.03;;
78131;SDS011;67381;47.672;9.380;2023-04-16T10:05:30;4.32;;;2.92;;
78131;SDS011;67381;47.672;9.380;2023-04-16T10:08:00;3.03;;;2.05;;
78131;SDS011;67381;47.672;9.380;2023-04-16T10:10:28;3.22;;;2.00;;
78131;SDS011;67381;47.672;9.380;2023-04-16T10:12:55;2.42;;;1.60;;
78131;SDS011;67381;47.672;9.380;2023-04-16T10:15:23;2.55;;;1.70;;
78131;SDS011;67381;47.672;9.380;2023-04-16T10:17:51;3.33;;;2.00;;
78131;SDS011;67381;47.672;9.380;2023-04-16T10:20:19;3.35;;;2.30;;
78131;SDS011;67381;47.672;9.380;2023-04-16T10:22:47;3.80;;;2.30;;
78131;SDS011;67381;47.672;9.380;2023-04-16T10:25:14;3.00;;;1.50;;
78131;SDS011;67381;47.672;9.380;2023-04-16T10:27:42;3.85;;;1.70;;
78131;SDS011;67381;47.672;9.380;2023-04-16T10:30:10;3.08;;;1.88;;
78131;SDS011;67381;47.672;9.380;2023-04-16T10:32:39;3.10;;;1.77;;
78131;SDS011;67381;47.672;9.380;2023-04-16T10:35:06;4.35;;;1.58;;
78131;SDS011;67381;47.672;9.380;2023-04-16T10:37:35;2.72;;;1.42;;
78131;SDS011;67381;47.672;9.380;2023-04-16T10:40:20;3.28;;;1.80;;
78131;SDS011;67381;47.672;9.380;2023-04-16T10:42:55;2.40;;;1.27;;
78131;SDS011;67381;47.672;9.380;2023-04-16T10:45:30;2.42;;;1.70;;
78131;SDS011;67381;47.672;9.380;2023-04-16T10:47:58;2.22;;;0.82;;
78131;SDS011;67381;47.672;9.380;2023-04-16T10:50:34;4.07;;;2.00;;
78131;SDS011;67381;47.672;9.380;2023-04-16T10:53:24;3.35;;;2.10;;
78131;SDS011;67381;47.672;9.380;2023-04-16T10:58:35;4.78;;;3.20;;
78131;SDS011;67381;47.672;9.380;2023-04-16T11:01:07;5.45;;;3.10;;
78131;SDS011;67381;47.672;9.380;2023-04-16T11:03:47;3.90;;;2.08;;
78131;SDS011;67381;47.672;9.380;2023-04-16T11:06:15;3.42;;;2.10;;
78131;SDS011;67381;47.672;9.380;2023-04-16T11:08:52;3.25;;;2.10;;
78131;SDS011;67381;47.672;9.380;2023-04-16T11:11:21;3.97;;;2.40;;
78131;SDS011;67381;47.672;9.380;2023-04-16T11:13:48;3.78;;;1.92;;
78131;SDS011;67381;47.672;9.380;2023-04-16T11:16:15;3.80;;;2.22;;
78131;SDS011;67381;47.672;9.380;2023-04-16T11:18:44;3.13;;;2.08;;
78131;SDS011;67381;47.672;9.380;2023-04-16T11:21:11;3.38;;;2.30;;
78131;SDS011;67381;47.672;9.380;2023-04-16T11:23:48;3.20;;;2.28;;
78131;SDS011;67381;47.672;9.380;2023-04-16T11:31:16;4.35;;;3.00;;
78131;SDS011;67381;47.672;9.380;2023-04-16T11:33:43;4.75;;;2.40;;
78131;SDS011;67381;47.672;9.380;2023-04-16T11:36:10;5.30;;;2.78;;
78131;SDS011;67381;47.672;9.380;2023-04-16T11:38:37;3.88;;;2.40;;
78131;SDS011;67381;47.672;9.380;2023-04-16T11:41:07;3.67;;;2.53;;
78131;SDS011;67381;47.672;9.380;2023-04-16T11:43:34;4.55;;;2.55;;
78131;SDS011;67381;47.672;9.380;2023-04-16T11:46:03;4.28;;;2.95;;
78131;SDS011;67381;47.672;9.380;2023-04-16T11:48:48;5.32;;;3.00;;
78131;SDS011;67381;47.672;9.380;2023-04-16T11:51:16;3.55;;;2.45;;
78131;SDS011;67381;47.672;9.380;2023-04-16T11:53:45;5.20;;;2.95;;
78131;SDS011;67381;47.672;9.380;2023-04-16T11:56:23;4.07;;;3.20;;
78131;SDS011;67381;47.672;9.380;2023-04-16T12:01:44;5.40;;;2.83;;
78131;SDS011;67381;47.672;9.380;2023-04-16T12:04:13;4.80;;;3.53;;
78131;SDS011;67381;47.672;9.380;2023-04-16T12:09:40;4.03;;;2.65;;
78131;SDS011;67381;47.672;9.380;2023-04-16T12:12:28;5.85;;;3.65;;
78131;SDS011;67381;47.672;9.380;2023-04-16T12:14:56;4.68;;;3.08;;
78131;SDS011;67381;47.672;9.380;2023-04-16T12:17:25;4.50;;;2.78;;
78131;SDS011;67381;47.672;9.380;2023-04-16T12:19:56;6.95;;;3.92;;
78131;SDS011;67381;47.672;9.380;2023-04-16T12:22:29;5.60;;;4.00;;
78131;SDS011;67381;47.672;9.380;2023-04-16T12:24:57;5.55;;;3.88;;
78131;SDS011;67381;47.672;9.380;2023-04-16T12:27:25;5.28;;;3.53;;
78131;SDS011;67381;47.672;9.380;2023-04-16T12:30:04;5.38;;;3.65;;
78131;SDS011;67381;47.672;9.380;2023-04-16T12:32:33;5.88;;;3.83;;
78131;SDS011;67381;47.672;9.380;2023-04-16T12:35:00;6.13;;;4.13;;
78131;SDS011;67381;47.672;9.380;2023-04-16T12:37:27;5.60;;;3.60;;
78131;SDS011;67381;47.672;9.380;2023-04-16T12:39:55;6.57;;;3.13;;
78131;SDS011;67381;47.672;9.380;2023-04-16T12:42:22;7.55;;;3.80;;
78131;SDS011;67381;47.672;9.380;2023-04-16T12:44:49;6.18;;;4.72;;
78131;SDS011;67381;47.672;9.380;2023-04-16T12:47:17;6.43;;;4.05;;
78131;SDS011;67381;47.672;9.380;2023-04-16T12:49:44;5.78;;;4.28;;
78131;SDS011;67381;47.672;9.380;2023-04-16T12:52:11;6.28;;;4.60;;
78131;SDS011;67381;47.672;9.380;2023-04-16T12:54:38;5.53;;;3.45;;
78131;SDS011;67381;47.672;9.380;2023-04-16T12:57:06;6.70;;;3.83;;
78131;SDS011;67381;47.672;9.380;2023-04-16T12:59:33;4.53;;;3.25;;
78131;SDS011;67381;47.672;9.380;2023-04-16T13:02:00;5.55;;;3.65;;
78131;SDS011;67381;47.672;9.380;2023-04-16T13:04:28;6.95;;;4.68;;
78131;SDS011;67381;47.672;9.380;2023-04-16T13:06:55;5.20;;;3.65;;
78131;SDS011;67381;47.672;9.380;2023-04-16T13:09:23;4.90;;;3.60;;
78131;SDS011;67381;47.672;9.380;2023-04-16T13:11:50;7.35;;;4.35;;
78131;SDS011;67381;47.672;9.380;2023-04-16T13:14:18;5.45;;;2.97;;
78131;SDS011;67381;47.672;9.380;2023-04-16T13:16:46;6.10;;;3.35;;
78131;SDS011;67381;47.672;9.380;2023-04-16T13:19:13;5.13;;;3.22;;
78131;SDS011;67381;47.672;9.380;2023-04-16T13:21:41;5.93;;;4.07;;
78131;SDS011;67381;47.672;9.380;2023-04-16T13:24:09;6.47;;;4.07;;
78131;SDS011;67381;47.672;9.380;2023-04-16T13:26:36;8.32;;;4.90;;
78131;SDS011;67381;47.672;9.380;2023-04-16T13:29:03;7.68;;;4.32;;
78131;SDS011;67381;47.672;9.380;2023-04-16T13:31:30;7.00;;;4.68;;
78131;SDS011;67381;47.672;9.380;2023-04-16T13:33:58;9.60;;;5.68;;
78131;SDS011;67381;47.672;9.380;2023-04-16T13:36:25;7.85;;;4.68;;
78131;SDS011;67381;47.672;9.380;2023-04-16T13:38:53;7.43;;;4.88;;
78131;SDS011;67381;47.672;9.380;2023-04-16T13:41:20;7.43;;;4.65;;
78131;SDS011;67381;47.672;9.380;2023-04-16T13:43:47;8.13;;;5.10;;
78131;SDS011;67381;47.672;9.380;2023-04-16T13:46:15;6.00;;;3.88;;
78131;SDS011;67381;47.672;9.380;2023-04-16T13:48:42;6.85;;;4.93;;
78131;SDS011;67381;47.672;9.380;2023-04-16T13:51:09;7.65;;;5.63;;
78131;SDS011;67381;47.672;9.380;2023-04-16T13:53:36;9.95;;;6.05;;
78131;SDS011;67381;47.672;9.380;2023-04-16T13:56:04;10.95;;;5.10;;
78131;SDS011;67381;47.672;9.380;2023-04-16T13:58:32;8.35;;;4.88;;
78131;SDS011;67381;47.672;9.380;2023-04-16T14:01:00;8.13;;;5.53;;
78131;SDS011;67381;47.672;9.380;2023-04-16T14:03:27;8.02;;;5.05;;
78131;SDS011;67381;47.672;9.380;2023-04-16T14:05:54;8.80;;;6.22;;
78131;SDS011;67381;47.672;9.380;2023-04-16T14:08:21;10.85;;;6.47;;
78131;SDS011;67381;47.672;9.380;2023-04-16T14:10:49;9.68;;;5.75;;
78131;SDS011;67381;47.672;9.380;2023-04-16T14:13:16;10.25;;;6.93;;
78131;SDS011;67381;47.672;9.380;2023-04-16T14:15:43;12.75;;;6.70;;
78131;SDS011;67381;47.672;9.380;2023-04-16T14:18:10;12.40;;;7.63;;
78131;SDS011;67381;47.672;9.380;2023-04-16T14:20:37;10.85;;;7.40;;
78131;SDS011;67381;47.672;9.380;2023-04-16T14:23:05;13.35;;;6.53;;
78131;SDS011;67381;47.672;9.380;2023-04-16T14:25:33;10.55;;;7.50;;
78131;SDS011;67381;47.672;9.380;2023-04-16T14:28:00;14.43;;;8.75;;
78131;SDS011;67381;47.672;9.380;2023-04-16T14:30:27;12.70;;;7.75;;
78131;SDS011;67381;47.672;9.380;2023-04-16T14:32:55;11.32;;;7.18;;
78131;SDS011;67381;47.672;9.380;2023-04-16T14:35:22;12.68;;;7.53;;
78131;SDS011;67381;47.672;9.380;2023-04-16T14:37:49;12.05;;;7.70;;
78131;SDS011;67381;47.672;9.380;2023-04-16T14:40:17;13.93;;;8.80;;
78131;SDS011;67381;47.672;9.380;2023-04-16T14:42:44;11.50;;;7.28;;
78131;SDS011;67381;47.672;9.380;2023-04-16T14:45:11;11.50;;;7.97;;
78131;SDS011;67381;47.672;9.380;2023-04-16T14:47:38;12.00;;;8.32;;
78131;SDS011;67381;47.672;9.380;2023-04-16T14:50:11;13.25;;;8.48;;
78131;SDS011;67381;47.672;9.380;2023-04-16T14:52:39;15.18;;;9.32;;
78131;SDS011;67381;47.672;9.380;2023-04-16T14:55:06;27.02;;;16.38;;
78131;SDS011;67381;47.672;9.380;2023-04-16T14:57:33;15.27;;;8.82;;
78131;SDS011;67381;47.672;9.380;2023-04-16T15:00:01;16.42;;;8.05;;
78131;SDS011;67381;47.672;9.380;2023-04-16T15:02:33;15.45;;;9.00;;
78131;SDS011;67381;47.672;9.380;2023-04-16T15:05:01;14.55;;;9.23;;